SVMI/CCS METAR and TAF weather

Enter ICAO airport designator
Station Type Date Time Source
SVMI METAR 2022/12/10 02:00 UTC NOAA

SVMI 100200Z 00000KT 9999 FEW016 SCT100 26/23 Q1012


Station Type Date Time Source
SVMI Decoded METAR 2022/12/10 02:00 UTC NOAA

Caracas / Maiquetia Aerop. Intl. Simon Bolivar, Venezuela (SVMI) 10-36N 066-59W 48M
Dec 09, 2022 - 09:00 PM EST / 2022.12.10 0200 UTC
Wind: Calm:0
Visibility: greater than 7 mile(s):0
Sky conditions: partly cloudy
Temperature: 78 F (26 C)
Dew Point: 73 F (23 C)
Relative Humidity: 83%
Pressure (altimeter): 29.88 in. Hg (1012 hPa)
ob: SVMI 100200Z 00000KT 9999 FEW016 SCT100 26/23 Q1012
cycle: 2

Station Type Date Time Source
SVMI TAF 2022/12/09 18:07 UTC NOAA

TAF SVMI 091600Z 0918/1018 00000KT 9999 FEW016 TX32/0918Z TN21/1007Z
TEMPO 0918/0922 09005KT 9000 -DZ SCT016 SCT090

Example: see airport list